sensor_id;sensor_type;location;lat;lon;timestamp;P1;durP1;ratioP1;P2;durP2;ratioP2
142;SDS011;63667;49.046;8.468;2022-10-18T00:01:06;16.10;;;8.57;;
142;SDS011;63667;49.046;8.468;2022-10-18T00:03:33;15.53;;;7.23;;
142;SDS011;63667;49.046;8.468;2022-10-18T00:06:02;16.73;;;7.83;;
142;SDS011;63667;49.046;8.468;2022-10-18T00:08:30;22.33;;;8.73;;
142;SDS011;63667;49.046;8.468;2022-10-18T00:10:58;17.27;;;8.00;;
142;SDS011;63667;49.046;8.468;2022-10-18T00:13:25;17.20;;;8.30;;
142;SDS011;63667;49.046;8.468;2022-10-18T00:15:57;21.43;;;7.27;;
142;SDS011;63667;49.046;8.468;2022-10-18T00:18:26;13.17;;;7.37;;
142;SDS011;63667;49.046;8.468;2022-10-18T00:23:31;18.57;;;7.37;;
142;SDS011;63667;49.046;8.468;2022-10-18T00:28:29;16.27;;;6.80;;
142;SDS011;63667;49.046;8.468;2022-10-18T00:30:56;17.07;;;6.80;;
142;SDS011;63667;49.046;8.468;2022-10-18T00:33:34;18.30;;;6.97;;
142;SDS011;63667;49.046;8.468;2022-10-18T00:36:01;14.77;;;7.50;;
142;SDS011;63667;49.046;8.468;2022-10-18T00:38:29;14.37;;;6.90;;
142;SDS011;63667;49.046;8.468;2022-10-18T00:40:56;13.03;;;7.23;;
142;SDS011;63667;49.046;8.468;2022-10-18T00:43:24;23.60;;;7.10;;
142;SDS011;63667;49.046;8.468;2022-10-18T00:45:51;17.67;;;7.50;;
142;SDS011;63667;49.046;8.468;2022-10-18T00:48:19;19.00;;;7.37;;
142;SDS011;63667;49.046;8.468;2022-10-18T00:50:47;17.20;;;7.07;;
142;SDS011;63667;49.046;8.468;2022-10-18T00:53:17;17.93;;;7.20;;
142;SDS011;63667;49.046;8.468;2022-10-18T00:55:51;36.00;;;7.83;;
142;SDS011;63667;49.046;8.468;2022-10-18T00:58:18;18.90;;;7.10;;
142;SDS011;63667;49.046;8.468;2022-10-18T01:00:46;15.53;;;6.83;;
142;SDS011;63667;49.046;8.468;2022-10-18T01:03:19;19.37;;;6.77;;
142;SDS011;63667;49.046;8.468;2022-10-18T01:05:49;19.00;;;6.77;;
142;SDS011;63667;49.046;8.468;2022-10-18T01:27:47;20.27;;;7.30;;
142;SDS011;63667;49.046;8.468;2022-10-18T01:30:24;15.60;;;6.50;;
142;SDS011;63667;49.046;8.468;2022-10-18T01:32:57;13.40;;;6.73;;
142;SDS011;63667;49.046;8.468;2022-10-18T01:35:34;15.50;;;6.80;;
142;SDS011;63667;49.046;8.468;2022-10-18T01:38:06;15.17;;;6.70;;
142;SDS011;63667;49.046;8.468;2022-10-18T01:40:37;16.13;;;6.80;;
142;SDS011;63667;49.046;8.468;2022-10-18T01:43:07;21.90;;;6.80;;
142;SDS011;63667;49.046;8.468;2022-10-18T01:45:37;26.20;;;7.50;;
142;SDS011;63667;49.046;8.468;2022-10-18T01:48:05;15.13;;;6.70;;
142;SDS011;63667;49.046;8.468;2022-10-18T01:50:34;17.30;;;7.57;;
142;SDS011;63667;49.046;8.468;2022-10-18T01:53:01;12.57;;;6.20;;
142;SDS011;63667;49.046;8.468;2022-10-18T01:55:50;27.43;;;6.67;;
142;SDS011;63667;49.046;8.468;2022-10-18T01:58:43;21.00;;;7.60;;
142;SDS011;63667;49.046;8.468;2022-10-18T02:01:39;17.20;;;6.90;;
142;SDS011;63667;49.046;8.468;2022-10-18T02:07:14;24.43;;;7.47;;
142;SDS011;63667;49.046;8.468;2022-10-18T02:12:43;18.77;;;6.40;;
142;SDS011;63667;49.046;8.468;2022-10-18T02:15:16;20.13;;;7.37;;
142;SDS011;63667;49.046;8.468;2022-10-18T02:17:47;12.60;;;6.50;;
142;SDS011;63667;49.046;8.468;2022-10-18T02:20:13;15.27;;;6.73;;
142;SDS011;63667;49.046;8.468;2022-10-18T02:22:45;15.90;;;7.27;;
142;SDS011;63667;49.046;8.468;2022-10-18T02:25:22;21.30;;;7.10;;
142;SDS011;63667;49.046;8.468;2022-10-18T02:27:52;16.90;;;7.17;;
142;SDS011;63667;49.046;8.468;2022-10-18T02:30:22;27.23;;;7.03;;
142;SDS011;63667;49.046;8.468;2022-10-18T02:33:08;28.37;;;7.60;;
142;SDS011;63667;49.046;8.468;2022-10-18T02:36:04;22.30;;;7.20;;
142;SDS011;63667;49.046;8.468;2022-10-18T02:38:37;28.17;;;7.93;;
142;SDS011;63667;49.046;8.468;2022-10-18T02:41:06;15.63;;;6.70;;
142;SDS011;63667;49.046;8.468;2022-10-18T02:43:32;13.00;;;6.67;;
142;SDS011;63667;49.046;8.468;2022-10-18T02:45:59;21.73;;;8.17;;
142;SDS011;63667;49.046;8.468;2022-10-18T02:48:26;22.83;;;7.20;;
142;SDS011;63667;49.046;8.468;2022-10-18T02:50:52;22.57;;;7.70;;
142;SDS011;63667;49.046;8.468;2022-10-18T02:53:18;20.67;;;7.13;;
142;SDS011;63667;49.046;8.468;2022-10-18T02:55:45;23.43;;;7.30;;
142;SDS011;63667;49.046;8.468;2022-10-18T02:58:12;21.70;;;7.07;;
142;SDS011;63667;49.046;8.468;2022-10-18T03:00:39;29.03;;;7.93;;
142;SDS011;63667;49.046;8.468;2022-10-18T03:03:06;24.77;;;7.73;;
142;SDS011;63667;49.046;8.468;2022-10-18T03:05:33;17.43;;;7.73;;
142;SDS011;63667;49.046;8.468;2022-10-18T03:07:59;22.73;;;7.27;;
142;SDS011;63667;49.046;8.468;2022-10-18T03:10:25;22.30;;;7.40;;
142;SDS011;63667;49.046;8.468;2022-10-18T03:12:51;26.40;;;7.50;;
142;SDS011;63667;49.046;8.468;2022-10-18T03:15:18;22.33;;;8.10;;
142;SDS011;63667;49.046;8.468;2022-10-18T03:17:44;19.13;;;7.20;;
142;SDS011;63667;49.046;8.468;2022-10-18T03:20:10;20.87;;;7.00;;
142;SDS011;63667;49.046;8.468;2022-10-18T03:22:38;24.47;;;8.30;;
142;SDS011;63667;49.046;8.468;2022-10-18T03:25:06;13.23;;;7.10;;
142;SDS011;63667;49.046;8.468;2022-10-18T03:27:34;19.60;;;7.23;;
142;SDS011;63667;49.046;8.468;2022-10-18T03:30:02;20.27;;;6.90;;
142;SDS011;63667;49.046;8.468;2022-10-18T03:32:30;17.03;;;7.20;;
142;SDS011;63667;49.046;8.468;2022-10-18T03:34:58;20.43;;;7.00;;
142;SDS011;63667;49.046;8.468;2022-10-18T03:37:27;16.93;;;6.40;;
142;SDS011;63667;49.046;8.468;2022-10-18T03:39:55;25.67;;;6.80;;
142;SDS011;63667;49.046;8.468;2022-10-18T03:42:23;15.60;;;6.33;;
142;SDS011;63667;49.046;8.468;2022-10-18T03:44:50;26.67;;;7.10;;
142;SDS011;63667;49.046;8.468;2022-10-18T03:47:17;28.63;;;7.53;;
142;SDS011;63667;49.046;8.468;2022-10-18T03:49:44;24.37;;;7.30;;
142;SDS011;63667;49.046;8.468;2022-10-18T03:52:12;24.90;;;7.33;;
142;SDS011;63667;49.046;8.468;2022-10-18T03:54:40;16.50;;;6.90;;
142;SDS011;63667;49.046;8.468;2022-10-18T03:57:07;22.30;;;6.77;;
142;SDS011;63667;49.046;8.468;2022-10-18T03:59:35;34.00;;;7.23;;
142;SDS011;63667;49.046;8.468;2022-10-18T04:02:01;18.00;;;7.00;;
142;SDS011;63667;49.046;8.468;2022-10-18T04:04:27;32.13;;;7.00;;
142;SDS011;63667;49.046;8.468;2022-10-18T04:06:54;17.57;;;6.50;;
142;SDS011;63667;49.046;8.468;2022-10-18T04:09:20;22.83;;;7.60;;
142;SDS011;63667;49.046;8.468;2022-10-18T04:11:48;24.03;;;7.50;;
142;SDS011;63667;49.046;8.468;2022-10-18T04:14:15;20.33;;;7.10;;
142;SDS011;63667;49.046;8.468;2022-10-18T04:16:45;22.97;;;6.90;;
142;SDS011;63667;49.046;8.468;2022-10-18T04:19:12;24.40;;;7.03;;
142;SDS011;63667;49.046;8.468;2022-10-18T04:21:39;12.83;;;6.13;;
142;SDS011;63667;49.046;8.468;2022-10-18T04:24:07;29.77;;;7.40;;
142;SDS011;63667;49.046;8.468;2022-10-18T04:26:35;15.10;;;6.57;;
142;SDS011;63667;49.046;8.468;2022-10-18T04:29:02;19.33;;;6.83;;
142;SDS011;63667;49.046;8.468;2022-10-18T04:31:29;14.67;;;6.77;;
142;SDS011;63667;49.046;8.468;2022-10-18T04:33:57;16.43;;;7.10;;
142;SDS011;63667;49.046;8.468;2022-10-18T04:36:24;18.90;;;7.37;;
142;SDS011;63667;49.046;8.468;2022-10-18T04:38:51;16.13;;;6.73;;
142;SDS011;63667;49.046;8.468;2022-10-18T04:41:19;16.50;;;7.53;;
142;SDS011;63667;49.046;8.468;2022-10-18T04:43:47;12.43;;;6.80;;
142;SDS011;63667;49.046;8.468;2022-10-18T04:46:16;24.50;;;7.77;;
142;SDS011;63667;49.046;8.468;2022-10-18T04:48:44;15.57;;;7.60;;
142;SDS011;63667;49.046;8.468;2022-10-18T04:51:10;11.23;;;7.30;;
142;SDS011;63667;49.046;8.468;2022-10-18T04:53:37;17.33;;;7.60;;
142;SDS011;63667;49.046;8.468;2022-10-18T04:56:05;26.63;;;7.43;;
142;SDS011;63667;49.046;8.468;2022-10-18T04:58:34;14.90;;;6.63;;
142;SDS011;63667;49.046;8.468;2022-10-18T05:01:05;18.83;;;7.00;;
142;SDS011;63667;49.046;8.468;2022-10-18T05:03:33;21.43;;;7.20;;
142;SDS011;63667;49.046;8.468;2022-10-18T05:06:00;20.10;;;7.70;;
142;SDS011;63667;49.046;8.468;2022-10-18T05:08:28;17.57;;;7.47;;
142;SDS011;63667;49.046;8.468;2022-10-18T05:10:56;13.33;;;7.10;;
142;SDS011;63667;49.046;8.468;2022-10-18T05:13:22;34.60;;;8.13;;
142;SDS011;63667;49.046;8.468;2022-10-18T05:15:50;19.40;;;7.37;;
142;SDS011;63667;49.046;8.468;2022-10-18T05:18:17;15.80;;;7.40;;
142;SDS011;63667;49.046;8.468;2022-10-18T05:20:45;18.93;;;7.77;;
142;SDS011;63667;49.046;8.468;2022-10-18T05:23:12;20.47;;;7.53;;
142;SDS011;63667;49.046;8.468;2022-10-18T05:25:40;25.10;;;7.23;;
142;SDS011;63667;49.046;8.468;2022-10-18T05:28:07;24.13;;;8.00;;
142;SDS011;63667;49.046;8.468;2022-10-18T05:30:38;30.17;;;7.10;;
142;SDS011;63667;49.046;8.468;2022-10-18T05:33:06;17.30;;;6.53;;
142;SDS011;63667;49.046;8.468;2022-10-18T05:35:33;15.20;;;7.23;;
142;SDS011;63667;49.046;8.468;2022-10-18T05:38:04;15.03;;;7.40;;
142;SDS011;63667;49.046;8.468;2022-10-18T05:40:31;29.50;;;7.33;;
142;SDS011;63667;49.046;8.468;2022-10-18T05:42:59;20.80;;;7.33;;
142;SDS011;63667;49.046;8.468;2022-10-18T05:45:26;21.47;;;7.07;;
142;SDS011;63667;49.046;8.468;2022-10-18T05:47:54;14.03;;;7.87;;
142;SDS011;63667;49.046;8.468;2022-10-18T05:50:21;22.17;;;7.20;;
142;SDS011;63667;49.046;8.468;2022-10-18T05:52:49;47.03;;;8.03;;
142;SDS011;63667;49.046;8.468;2022-10-18T05:55:22;17.00;;;7.47;;
142;SDS011;63667;49.046;8.468;2022-10-18T05:57:50;24.83;;;7.53;;
142;SDS011;63667;49.046;8.468;2022-10-18T06:00:17;14.20;;;7.03;;
142;SDS011;63667;49.046;8.468;2022-10-18T06:02:45;30.07;;;7.90;;
142;SDS011;63667;49.046;8.468;2022-10-18T06:05:12;18.33;;;7.30;;
142;SDS011;63667;49.046;8.468;2022-10-18T06:07:43;22.53;;;7.00;;
142;SDS011;63667;49.046;8.468;2022-10-18T06:10:11;26.40;;;7.57;;
142;SDS011;63667;49.046;8.468;2022-10-18T06:12:39;16.57;;;6.90;;
142;SDS011;63667;49.046;8.468;2022-10-18T06:15:07;15.20;;;7.30;;
142;SDS011;63667;49.046;8.468;2022-10-18T06:17:35;20.50;;;7.23;;
142;SDS011;63667;49.046;8.468;2022-10-18T06:20:02;10.73;;;7.27;;
142;SDS011;63667;49.046;8.468;2022-10-18T06:22:31;22.13;;;7.77;;
142;SDS011;63667;49.046;8.468;2022-10-18T06:24:58;15.27;;;7.20;;
142;SDS011;63667;49.046;8.468;2022-10-18T06:27:26;19.37;;;7.70;;
142;SDS011;63667;49.046;8.468;2022-10-18T06:29:54;30.90;;;7.53;;
142;SDS011;63667;49.046;8.468;2022-10-18T06:32:30;24.03;;;7.73;;
142;SDS011;63667;49.046;8.468;2022-10-18T06:34:58;18.97;;;7.83;;
142;SDS011;63667;49.046;8.468;2022-10-18T06:37:28;19.50;;;6.87;;
142;SDS011;63667;49.046;8.468;2022-10-18T06:39:55;27.23;;;9.10;;
142;SDS011;63667;49.046;8.468;2022-10-18T06:42:22;24.97;;;7.37;;
142;SDS011;63667;49.046;8.468;2022-10-18T06:44:50;13.20;;;6.93;;
142;SDS011;63667;49.046;8.468;2022-10-18T06:47:17;21.73;;;7.00;;
142;SDS011;63667;49.046;8.468;2022-10-18T06:49:45;32.40;;;7.27;;
142;SDS011;63667;49.046;8.468;2022-10-18T06:52:12;36.70;;;8.73;;
142;SDS011;63667;49.046;8.468;2022-10-18T06:54:46;20.53;;;7.70;;
142;SDS011;63667;49.046;8.468;2022-10-18T06:57:14;21.43;;;7.17;;
142;SDS011;63667;49.046;8.468;2022-10-18T06:59:41;33.53;;;8.13;;
142;SDS011;63667;49.046;8.468;2022-10-18T07:02:12;22.67;;;7.20;;
142;SDS011;63667;49.046;8.468;2022-10-18T07:05:01;18.80;;;7.07;;
142;SDS011;63667;49.046;8.468;2022-10-18T07:07:32;19.60;;;6.63;;
142;SDS011;63667;49.046;8.468;2022-10-18T07:09:59;25.50;;;7.70;;
142;SDS011;63667;49.046;8.468;2022-10-18T07:12:28;17.60;;;7.73;;
142;SDS011;63667;49.046;8.468;2022-10-18T07:14:56;22.27;;;7.93;;
142;SDS011;63667;49.046;8.468;2022-10-18T07:17:23;14.70;;;7.83;;
142;SDS011;63667;49.046;8.468;2022-10-18T07:19:53;16.23;;;8.20;;
142;SDS011;63667;49.046;8.468;2022-10-18T07:22:35;17.40;;;7.87;;
142;SDS011;63667;49.046;8.468;2022-10-18T07:25:11;49.97;;;9.10;;
142;SDS011;63667;49.046;8.468;2022-10-18T07:27:52;12.37;;;7.83;;
142;SDS011;63667;49.046;8.468;2022-10-18T07:30:23;14.50;;;8.57;;
142;SDS011;63667;49.046;8.468;2022-10-18T07:33:04;24.23;;;8.20;;
142;SDS011;63667;49.046;8.468;2022-10-18T07:35:38;24.97;;;9.17;;
142;SDS011;63667;49.046;8.468;2022-10-18T07:38:18;15.40;;;8.73;;
142;SDS011;63667;49.046;8.468;2022-10-18T07:40:54;23.03;;;10.13;;
142;SDS011;63667;49.046;8.468;2022-10-18T07:43:34;17.80;;;9.40;;
142;SDS011;63667;49.046;8.468;2022-10-18T07:46:10;21.13;;;10.03;;
142;SDS011;63667;49.046;8.468;2022-10-18T07:48:49;26.37;;;10.80;;
142;SDS011;63667;49.046;8.468;2022-10-18T07:51:43;19.73;;;9.37;;
142;SDS011;63667;49.046;8.468;2022-10-18T07:54:14;19.07;;;10.07;;
142;SDS011;63667;49.046;8.468;2022-10-18T07:56:44;20.17;;;10.20;;
142;SDS011;63667;49.046;8.468;2022-10-18T07:59:16;16.97;;;10.73;;
142;SDS011;63667;49.046;8.468;2022-10-18T08:01:54;23.47;;;10.10;;
142;SDS011;63667;49.046;8.468;2022-10-18T08:04:25;21.60;;;10.73;;
142;SDS011;63667;49.046;8.468;2022-10-18T08:06:57;22.07;;;11.00;;
142;SDS011;63667;49.046;8.468;2022-10-18T08:09:38;22.03;;;11.30;;
142;SDS011;63667;49.046;8.468;2022-10-18T08:12:33;28.30;;;11.20;;
142;SDS011;63667;49.046;8.468;2022-10-18T08:15:05;17.10;;;10.40;;
142;SDS011;63667;49.046;8.468;2022-10-18T08:20:19;21.57;;;10.87;;
142;SDS011;63667;49.046;8.468;2022-10-18T08:22:52;23.27;;;9.67;;
142;SDS011;63667;49.046;8.468;2022-10-18T08:25:27;16.90;;;9.33;;
142;SDS011;63667;49.046;8.468;2022-10-18T08:28:09;25.80;;;9.20;;
142;SDS011;63667;49.046;8.468;2022-10-18T08:30:38;18.87;;;9.57;;
142;SDS011;63667;49.046;8.468;2022-10-18T08:33:06;16.87;;;9.57;;
142;SDS011;63667;49.046;8.468;2022-10-18T08:35:33;19.60;;;10.13;;
142;SDS011;63667;49.046;8.468;2022-10-18T08:38:02;21.77;;;9.43;;
142;SDS011;63667;49.046;8.468;2022-10-18T08:40:29;19.07;;;10.30;;
142;SDS011;63667;49.046;8.468;2022-10-18T08:45:38;19.40;;;8.70;;
142;SDS011;63667;49.046;8.468;2022-10-18T08:48:19;18.80;;;9.73;;
142;SDS011;63667;49.046;8.468;2022-10-18T08:50:50;16.10;;;8.97;;
142;SDS011;63667;49.046;8.468;2022-10-18T08:53:28;13.50;;;8.77;;
142;SDS011;63667;49.046;8.468;2022-10-18T08:56:02;14.70;;;9.00;;
142;SDS011;63667;49.046;8.468;2022-10-18T08:58:41;18.00;;;8.63;;
142;SDS011;63667;49.046;8.468;2022-10-18T09:07:19;15.37;;;8.53;;
142;SDS011;63667;49.046;8.468;2022-10-18T09:13:44;19.60;;;7.80;;
142;SDS011;63667;49.046;8.468;2022-10-18T09:16:15;14.80;;;7.70;;
142;SDS011;63667;49.046;8.468;2022-10-18T09:24:11;12.00;;;7.33;;
142;SDS011;63667;49.046;8.468;2022-10-18T09:26:55;18.33;;;7.87;;
142;SDS011;63667;49.046;8.468;2022-10-18T09:32:55;22.23;;;7.27;;
142;SDS011;63667;49.046;8.468;2022-10-18T09:35:04;15.60;;;8.30;;
142;SDS011;63667;49.046;8.468;2022-10-18T09:38:03;16.80;;;7.90;;
142;SDS011;63667;49.046;8.468;2022-10-18T09:40:35;15.57;;;7.80;;
142;SDS011;63667;49.046;8.468;2022-10-18T09:43:15;21.27;;;7.70;;
142;SDS011;63667;49.046;8.468;2022-10-18T09:46:06;16.40;;;7.77;;
142;SDS011;63667;49.046;8.468;2022-10-18T09:48:39;17.10;;;8.23;;
142;SDS011;63667;49.046;8.468;2022-10-18T09:51:18;20.43;;;7.83;;
142;SDS011;63667;49.046;8.468;2022-10-18T09:59:14;17.50;;;7.73;;
142;SDS011;63667;49.046;8.468;2022-10-18T10:02:11;17.30;;;8.00;;
142;SDS011;63667;49.046;8.468;2022-10-18T10:04:39;11.03;;;7.20;;
142;SDS011;63667;49.046;8.468;2022-10-18T10:07:08;15.10;;;7.40;;
142;SDS011;63667;49.046;8.468;2022-10-18T10:10:25;16.03;;;8.27;;
142;SDS011;63667;49.046;8.468;2022-10-18T10:12:33;15.77;;;8.23;;
142;SDS011;63667;49.046;8.468;2022-10-18T10:15:11;17.63;;;7.77;;
142;SDS011;63667;49.046;8.468;2022-10-18T10:20:24;14.33;;;6.87;;
142;SDS011;63667;49.046;8.468;2022-10-18T10:22:53;14.53;;;7.30;;
142;SDS011;63667;49.046;8.468;2022-10-18T10:25:30;14.90;;;7.00;;
142;SDS011;63667;49.046;8.468;2022-10-18T10:28:06;11.40;;;7.07;;
142;SDS011;63667;49.046;8.468;2022-10-18T10:30:41;9.93;;;6.60;;
142;SDS011;63667;49.046;8.468;2022-10-18T10:33:56;16.30;;;6.43;;
142;SDS011;63667;49.046;8.468;2022-10-18T10:36:04;14.23;;;6.77;;
142;SDS011;63667;49.046;8.468;2022-10-18T10:38:41;7.17;;;5.67;;
142;SDS011;63667;49.046;8.468;2022-10-18T10:41:22;13.27;;;6.90;;
142;SDS011;63667;49.046;8.468;2022-10-18T10:43:49;12.50;;;6.63;;
142;SDS011;63667;49.046;8.468;2022-10-18T10:46:17;14.37;;;6.80;;
142;SDS011;63667;49.046;8.468;2022-10-18T10:48:53;14.67;;;6.53;;
142;SDS011;63667;49.046;8.468;2022-10-18T10:51:31;11.83;;;7.20;;
142;SDS011;63667;49.046;8.468;2022-10-18T10:54:17;18.67;;;6.90;;
142;SDS011;63667;49.046;8.468;2022-10-18T10:59:53;12.07;;;6.10;;
142;SDS011;63667;49.046;8.468;2022-10-18T11:05:24;9.37;;;5.30;;
142;SDS011;63667;49.046;8.468;2022-10-18T11:07:54;11.87;;;5.97;;
142;SDS011;63667;49.046;8.468;2022-10-18T11:10:24;10.77;;;5.50;;
142;SDS011;63667;49.046;8.468;2022-10-18T11:15:39;12.73;;;6.40;;
142;SDS011;63667;49.046;8.468;2022-10-18T11:21:27;9.83;;;6.70;;
142;SDS011;63667;49.046;8.468;2022-10-18T11:23:49;12.73;;;6.00;;
142;SDS011;63667;49.046;8.468;2022-10-18T11:26:21;8.97;;;5.30;;
142;SDS011;63667;49.046;8.468;2022-10-18T11:29:14;10.27;;;6.07;;
142;SDS011;63667;49.046;8.468;2022-10-18T11:40:26;8.20;;;4.27;;
142;SDS011;63667;49.046;8.468;2022-10-18T11:45:45;16.93;;;4.73;;
142;SDS011;63667;49.046;8.468;2022-10-18T11:52:12;7.77;;;4.17;;
142;SDS011;63667;49.046;8.468;2022-10-18T11:55:19;8.90;;;4.10;;
142;SDS011;63667;49.046;8.468;2022-10-18T12:03:26;6.17;;;4.17;;
142;SDS011;63667;49.046;8.468;2022-10-18T12:06:16;6.27;;;3.90;;
142;SDS011;63667;49.046;8.468;2022-10-18T12:11:46;9.57;;;4.10;;
142;SDS011;63667;49.046;8.468;2022-10-18T12:14:47;6.33;;;3.90;;
142;SDS011;63667;49.046;8.468;2022-10-18T12:17:39;11.33;;;3.80;;
142;SDS011;63667;49.046;8.468;2022-10-18T12:20:46;3.87;;;3.70;;
142;SDS011;63667;49.046;8.468;2022-10-18T12:23:15;6.23;;;3.87;;
142;SDS011;63667;49.046;8.468;2022-10-18T12:26:02;4.20;;;3.30;;
142;SDS011;63667;49.046;8.468;2022-10-18T12:31:29;8.97;;;7.27;;
142;SDS011;63667;49.046;8.468;2022-10-18T12:40:37;7.60;;;4.90;;
142;SDS011;63667;49.046;8.468;2022-10-18T12:43:47;5.87;;;5.07;;
142;SDS011;63667;49.046;8.468;2022-10-18T12:46:54;5.60;;;4.40;;
142;SDS011;63667;49.046;8.468;2022-10-18T12:52:02;5.63;;;5.00;;
142;SDS011;63667;49.046;8.468;2022-10-18T12:54:32;4.87;;;4.57;;
142;SDS011;63667;49.046;8.468;2022-10-18T12:57:03;9.50;;;5.03;;
142;SDS011;63667;49.046;8.468;2022-10-18T13:09:30;8.70;;;5.07;;
142;SDS011;63667;49.046;8.468;2022-10-18T13:33:44;8.43;;;5.97;;
142;SDS011;63667;49.046;8.468;2022-10-18T13:36:24;8.53;;;5.73;;
142;SDS011;63667;49.046;8.468;2022-10-18T13:41:28;13.20;;;6.97;;
142;SDS011;63667;49.046;8.468;2022-10-18T13:44:02;8.50;;;6.47;;
142;SDS011;63667;49.046;8.468;2022-10-18T13:47:14;9.80;;;6.03;;
142;SDS011;63667;49.046;8.468;2022-10-18T13:50:07;9.20;;;6.00;;
142;SDS011;63667;49.046;8.468;2022-10-18T13:58:29;13.10;;;7.20;;
142;SDS011;63667;49.046;8.468;2022-10-18T14:07:02;8.40;;;7.80;;
142;SDS011;63667;49.046;8.468;2022-10-18T14:09:33;13.30;;;8.10;;
142;SDS011;63667;49.046;8.468;2022-10-18T14:15:38;12.53;;;7.80;;
142;SDS011;63667;49.046;8.468;2022-10-18T14:18:01;9.60;;;7.90;;
142;SDS011;63667;49.046;8.468;2022-10-18T14:20:43;14.47;;;8.80;;
142;SDS011;63667;49.046;8.468;2022-10-18T14:23:33;11.00;;;8.17;;
142;SDS011;63667;49.046;8.468;2022-10-18T14:26:13;11.47;;;8.80;;
142;SDS011;63667;49.046;8.468;2022-10-18T14:28:45;12.57;;;8.70;;
142;SDS011;63667;49.046;8.468;2022-10-18T14:31:31;9.07;;;7.90;;
142;SDS011;63667;49.046;8.468;2022-10-18T14:33:58;12.47;;;8.30;;
142;SDS011;63667;49.046;8.468;2022-10-18T14:36:28;10.13;;;8.40;;
142;SDS011;63667;49.046;8.468;2022-10-18T14:39:05;12.60;;;8.47;;
142;SDS011;63667;49.046;8.468;2022-10-18T14:41:52;14.07;;;8.87;;
142;SDS011;63667;49.046;8.468;2022-10-18T14:44:45;21.10;;;9.37;;
142;SDS011;63667;49.046;8.468;2022-10-18T14:49:48;12.90;;;8.60;;
142;SDS011;63667;49.046;8.468;2022-10-18T14:52:19;12.40;;;8.07;;
142;SDS011;63667;49.046;8.468;2022-10-18T14:54:52;20.40;;;9.30;;
142;SDS011;63667;49.046;8.468;2022-10-18T14:57:28;13.73;;;9.30;;
142;SDS011;63667;49.046;8.468;2022-10-18T15:00:00;17.63;;;8.80;;
142;SDS011;63667;49.046;8.468;2022-10-18T15:02:36;10.80;;;8.67;;
142;SDS011;63667;49.046;8.468;2022-10-18T15:08:05;11.13;;;8.90;;
142;SDS011;63667;49.046;8.468;2022-10-18T15:10:34;10.70;;;8.67;;
142;SDS011;63667;49.046;8.468;2022-10-18T15:13:02;11.30;;;8.40;;
142;SDS011;63667;49.046;8.468;2022-10-18T15:15:31;10.10;;;8.53;;
142;SDS011;63667;49.046;8.468;2022-10-18T15:18:00;15.30;;;9.27;;
142;SDS011;63667;49.046;8.468;2022-10-18T15:20:31;15.40;;;8.13;;
142;SDS011;63667;49.046;8.468;2022-10-18T15:26:07;18.10;;;8.37;;
142;SDS011;63667;49.046;8.468;2022-10-18T15:28:41;9.57;;;7.67;;
142;SDS011;63667;49.046;8.468;2022-10-18T15:31:21;10.37;;;7.97;;
142;SDS011;63667;49.046;8.468;2022-10-18T15:36:48;14.37;;;8.97;;
142;SDS011;63667;49.046;8.468;2022-10-18T15:39:18;10.60;;;8.17;;
142;SDS011;63667;49.046;8.468;2022-10-18T15:41:50;17.40;;;9.00;;
142;SDS011;63667;49.046;8.468;2022-10-18T15:44:20;11.27;;;8.47;;
142;SDS011;63667;49.046;8.468;2022-10-18T16:00:55;9.10;;;6.63;;
142;SDS011;63667;49.046;8.468;2022-10-18T16:03:24;10.53;;;6.93;;
142;SDS011;63667;49.046;8.468;2022-10-18T16:06:02;16.10;;;7.00;;
142;SDS011;63667;49.046;8.468;2022-10-18T16:08:34;9.80;;;6.80;;
142;SDS011;63667;49.046;8.468;2022-10-18T16:11:15;12.47;;;6.97;;
142;SDS011;63667;49.046;8.468;2022-10-18T16:13:53;8.27;;;6.30;;
142;SDS011;63667;49.046;8.468;2022-10-18T16:16:25;15.00;;;6.80;;
142;SDS011;63667;49.046;8.468;2022-10-18T16:18:53;8.90;;;6.50;;
142;SDS011;63667;49.046;8.468;2022-10-18T16:21:29;8.97;;;6.67;;
142;SDS011;63667;49.046;8.468;2022-10-18T16:23:59;8.60;;;6.50;;
142;SDS011;63667;49.046;8.468;2022-10-18T16:26:27;10.73;;;6.00;;
142;SDS011;63667;49.046;8.468;2022-10-18T16:28:54;9.33;;;6.37;;
142;SDS011;63667;49.046;8.468;2022-10-18T16:31:23;10.53;;;6.30;;
142;SDS011;63667;49.046;8.468;2022-10-18T16:33:52;8.40;;;6.40;;
142;SDS011;63667;49.046;8.468;2022-10-18T16:36:22;7.10;;;6.10;;
142;SDS011;63667;49.046;8.468;2022-10-18T16:38:55;11.80;;;6.10;;
142;SDS011;63667;49.046;8.468;2022-10-18T16:41:23;13.17;;;6.50;;
142;SDS011;63667;49.046;8.468;2022-10-18T16:43:51;17.03;;;6.40;;
142;SDS011;63667;49.046;8.468;2022-10-18T16:46:21;8.20;;;5.80;;
142;SDS011;63667;49.046;8.468;2022-10-18T16:48:53;13.17;;;6.70;;
142;SDS011;63667;49.046;8.468;2022-10-18T16:51:20;8.53;;;6.30;;
142;SDS011;63667;49.046;8.468;2022-10-18T16:53:48;12.13;;;7.30;;
142;SDS011;63667;49.046;8.468;2022-10-18T16:56:17;12.10;;;8.00;;
142;SDS011;63667;49.046;8.468;2022-10-18T16:58:50;12.23;;;8.20;;
142;SDS011;63667;49.046;8.468;2022-10-18T17:01:19;18.33;;;9.10;;
142;SDS011;63667;49.046;8.468;2022-10-18T17:03:48;16.27;;;8.37;;
142;SDS011;63667;49.046;8.468;2022-10-18T17:06:26;13.83;;;7.63;;
142;SDS011;63667;49.046;8.468;2022-10-18T17:08:55;14.23;;;8.47;;
142;SDS011;63667;49.046;8.468;2022-10-18T17:11:23;16.13;;;7.63;;
142;SDS011;63667;49.046;8.468;2022-10-18T17:13:52;16.93;;;7.27;;
142;SDS011;63667;49.046;8.468;2022-10-18T17:16:24;14.47;;;7.93;;
142;SDS011;63667;49.046;8.468;2022-10-18T17:18:57;14.80;;;9.97;;
142;SDS011;63667;49.046;8.468;2022-10-18T17:21:27;18.47;;;10.70;;
142;SDS011;63667;49.046;8.468;2022-10-18T17:23:55;21.60;;;9.30;;
142;SDS011;63667;49.046;8.468;2022-10-18T17:26:26;16.40;;;9.10;;
142;SDS011;63667;49.046;8.468;2022-10-18T17:28:55;25.90;;;10.27;;
142;SDS011;63667;49.046;8.468;2022-10-18T17:31:30;25.13;;;10.50;;
142;SDS011;63667;49.046;8.468;2022-10-18T17:33:59;29.13;;;9.33;;
142;SDS011;63667;49.046;8.468;2022-10-18T17:36:27;19.90;;;8.93;;
142;SDS011;63667;49.046;8.468;2022-10-18T17:38:56;23.57;;;9.30;;
142;SDS011;63667;49.046;8.468;2022-10-18T17:41:24;18.63;;;9.63;;
142;SDS011;63667;49.046;8.468;2022-10-18T17:43:52;14.50;;;8.70;;
142;SDS011;63667;49.046;8.468;2022-10-18T17:46:18;15.80;;;9.53;;
142;SDS011;63667;49.046;8.468;2022-10-18T17:48:46;19.20;;;10.53;;
142;SDS011;63667;49.046;8.468;2022-10-18T17:51:23;20.43;;;11.17;;
142;SDS011;63667;49.046;8.468;2022-10-18T17:53:52;16.83;;;9.77;;
142;SDS011;63667;49.046;8.468;2022-10-18T17:56:20;17.37;;;9.87;;
142;SDS011;63667;49.046;8.468;2022-10-18T17:58:51;18.57;;;8.87;;
142;SDS011;63667;49.046;8.468;2022-10-18T18:01:20;18.53;;;8.77;;
142;SDS011;63667;49.046;8.468;2022-10-18T18:03:48;29.00;;;9.97;;
142;SDS011;63667;49.046;8.468;2022-10-18T18:06:20;22.00;;;10.27;;
142;SDS011;63667;49.046;8.468;2022-10-18T18:08:59;20.60;;;11.23;;
142;SDS011;63667;49.046;8.468;2022-10-18T18:11:29;20.77;;;10.77;;
142;SDS011;63667;49.046;8.468;2022-10-18T18:13:58;21.70;;;10.57;;
142;SDS011;63667;49.046;8.468;2022-10-18T18:16:27;13.60;;;7.73;;
142;SDS011;63667;49.046;8.468;2022-10-18T18:18:56;11.43;;;6.97;;
142;SDS011;63667;49.046;8.468;2022-10-18T18:21:25;19.03;;;8.00;;
142;SDS011;63667;49.046;8.468;2022-10-18T18:23:53;13.60;;;6.90;;
142;SDS011;63667;49.046;8.468;2022-10-18T18:26:22;16.30;;;7.33;;
142;SDS011;63667;49.046;8.468;2022-10-18T18:28:52;15.20;;;7.50;;
142;SDS011;63667;49.046;8.468;2022-10-18T18:31:21;19.43;;;6.50;;
142;SDS011;63667;49.046;8.468;2022-10-18T18:33:54;16.27;;;8.00;;
142;SDS011;63667;49.046;8.468;2022-10-18T18:36:23;20.47;;;8.03;;
142;SDS011;63667;49.046;8.468;2022-10-18T18:38:51;16.37;;;9.13;;